createdAt,value
2022-12-08T00:01:32.337Z,1.63
2022-12-08T00:04:01.445Z,1.56
2022-12-08T00:06:50.400Z,1.54
2022-12-08T00:09:23.417Z,1.56
2022-12-08T00:11:57.324Z,1.62
2022-12-08T00:14:28.119Z,1.73
2022-12-08T00:16:56.305Z,1.74
2022-12-08T00:19:25.231Z,1.68
2022-12-08T00:21:55.625Z,1.67
2022-12-08T00:24:25.729Z,1.68
2022-12-08T00:26:53.471Z,1.64
2022-12-08T00:29:21.234Z,1.56
2022-12-08T00:31:49.161Z,1.70
2022-12-08T00:34:17.971Z,1.62
2022-12-08T00:36:45.824Z,1.67
2022-12-08T00:39:16.551Z,1.90
2022-12-08T00:42:01.719Z,1.83
2022-12-08T00:44:29.566Z,1.64
2022-12-08T00:46:57.386Z,1.54
2022-12-08T00:49:25.537Z,1.47
2022-12-08T00:51:53.373Z,1.51
2022-12-08T00:54:23.935Z,1.76
2022-12-08T00:56:51.798Z,1.79
2022-12-08T00:59:19.767Z,1.89
2022-12-08T01:01:48.758Z,1.82
2022-12-08T01:04:18.919Z,1.83
2022-12-08T01:06:47.292Z,1.73
2022-12-08T01:09:16.404Z,1.75
2022-12-08T01:11:46.154Z,1.64
2022-12-08T01:14:14.843Z,1.56
2022-12-08T01:16:43.470Z,1.59
2022-12-08T01:19:12.319Z,1.59
2022-12-08T01:21:40.332Z,1.57
2022-12-08T01:24:11.594Z,1.69
2022-12-08T01:26:39.361Z,1.66
2022-12-08T01:29:08.991Z,1.60
2022-12-08T01:31:36.998Z,1.60
2022-12-08T01:34:05.144Z,1.52
2022-12-08T01:36:36.986Z,1.56
2022-12-08T01:39:06.786Z,1.61
2022-12-08T01:41:36.425Z,1.62
2022-12-08T01:44:25.651Z,1.66
2022-12-08T01:46:55.693Z,1.57
2022-12-08T01:49:27.841Z,1.52
2022-12-08T01:52:00.103Z,1.73
2022-12-08T01:54:32.110Z,1.74
2022-12-08T01:57:04.069Z,1.65
2022-12-08T01:59:34.165Z,1.56
2022-12-08T02:02:03.570Z,1.52
2022-12-08T02:04:31.457Z,1.41
2022-12-08T02:07:03.691Z,1.43
2022-12-08T02:09:36.765Z,1.32
2022-12-08T02:12:05.253Z,1.30
2022-12-08T02:14:33.288Z,1.22
2022-12-08T02:17:14.008Z,1.20
2022-12-08T02:20:14.535Z,1.20
2022-12-08T02:22:53.224Z,1.27
2022-12-08T02:25:29.805Z,1.27
2022-12-08T02:28:04.807Z,1.19
2022-12-08T02:30:45.504Z,1.17
2022-12-08T02:33:43.007Z,1.18
2022-12-08T02:36:18.715Z,1.13
2022-12-08T02:38:53.213Z,1.11
2022-12-08T02:41:31.481Z,1.14
2022-12-08T02:44:06.770Z,1.13
2022-12-08T02:46:40.596Z,1.19
2022-12-08T02:49:08.735Z,1.25
2022-12-08T02:51:37.808Z,1.31
2022-12-08T02:54:05.967Z,1.21
2022-12-08T02:56:47.463Z,1.35
2022-12-08T02:59:31.811Z,1.36
2022-12-08T03:02:24.646Z,1.34
2022-12-08T03:04:59.101Z,1.33
2022-12-08T03:07:33.376Z,1.29
2022-12-08T03:10:07.964Z,1.23
2022-12-08T03:12:42.375Z,1.15
2022-12-08T03:15:14.316Z,1.11
2022-12-08T03:17:46.665Z,1.07
2022-12-08T03:20:22.172Z,1.01
2022-12-08T03:22:54.308Z,0.95
2022-12-08T03:25:24.129Z,0.96
2022-12-08T03:27:52.298Z,0.99
2022-12-08T03:30:20.250Z,1.09
2022-12-08T03:32:53.933Z,1.05
2022-12-08T03:35:26.037Z,1.16
2022-12-08T03:38:03.684Z,1.12
2022-12-08T03:40:31.490Z,1.10
2022-12-08T03:42:59.271Z,1.07
2022-12-08T03:45:27.414Z,1.08
2022-12-08T03:47:55.173Z,1.05
2022-12-08T03:50:23.415Z,1.03
2022-12-08T03:52:51.271Z,1.11
2022-12-08T03:55:21.424Z,1.06
2022-12-08T03:57:49.186Z,0.92
2022-12-08T04:00:17.950Z,0.92
2022-12-08T04:02:45.877Z,0.88
2022-12-08T04:05:13.684Z,0.92
2022-12-08T04:07:41.543Z,0.91
2022-12-08T04:10:10.611Z,0.88
2022-12-08T04:12:39.759Z,0.87
2022-12-08T04:15:08.742Z,0.90
2022-12-08T04:17:36.506Z,0.91
2022-12-08T04:20:04.912Z,1.01
2022-12-08T04:22:32.903Z,0.96
2022-12-08T04:25:00.882Z,0.89
2022-12-08T04:27:29.036Z,1.07
2022-12-08T04:29:58.202Z,1.17
2022-12-08T04:32:26.035Z,0.97
2022-12-08T04:34:53.762Z,0.96
2022-12-08T04:37:21.522Z,0.97
2022-12-08T04:39:49.291Z,1.01
2022-12-08T04:42:17.038Z,0.89
2022-12-08T04:44:44.805Z,0.88
2022-12-08T04:47:14.166Z,0.91
2022-12-08T04:49:42.034Z,1.02
2022-12-08T04:52:09.804Z,0.96
2022-12-08T04:54:39.719Z,0.96
2022-12-08T04:57:07.605Z,0.88
2022-12-08T04:59:35.469Z,0.90
2022-12-08T05:02:03.598Z,1.09
2022-12-08T05:04:32.988Z,1.02
2022-12-08T05:07:00.753Z,1.03
2022-12-08T05:09:28.763Z,0.94
2022-12-08T05:11:56.745Z,0.99
2022-12-08T05:14:24.724Z,0.98
2022-12-08T05:16:52.573Z,1.16
2022-12-08T05:19:20.398Z,1.06
2022-12-08T05:21:49.619Z,1.05
2022-12-08T05:24:17.453Z,1.07
2022-12-08T05:26:45.232Z,0.96
2022-12-08T05:29:12.997Z,0.90
2022-12-08T05:31:40.843Z,0.86
2022-12-08T05:34:08.846Z,0.81
2022-12-08T05:36:36.618Z,0.83
2022-12-08T05:39:05.766Z,0.83
2022-12-08T05:41:33.517Z,0.72
2022-12-08T05:44:01.274Z,0.65
2022-12-08T05:46:29.430Z,0.55
2022-12-08T05:48:57.310Z,0.51
2022-12-08T05:51:25.555Z,0.54
2022-12-08T05:53:54.514Z,0.50
2022-12-08T05:56:24.074Z,0.46
2022-12-08T05:58:51.891Z,0.58
2022-12-08T06:01:24.228Z,0.51
2022-12-08T06:03:52.313Z,0.49
2022-12-08T06:06:20.825Z,0.46
2022-12-08T06:08:48.714Z,0.35
2022-12-08T06:11:19.905Z,0.34
2022-12-08T06:13:49.085Z,0.39
2022-12-08T06:16:17.354Z,0.48
2022-12-08T06:18:45.424Z,0.49
2022-12-08T06:21:15.479Z,0.39
2022-12-08T06:23:44.105Z,0.30
2022-12-08T06:26:14.746Z,0.27
2022-12-08T06:28:43.731Z,0.31
2022-12-08T06:31:16.027Z,0.31
2022-12-08T06:33:44.536Z,0.34
2022-12-08T06:36:14.198Z,0.31
2022-12-08T06:38:43.812Z,0.28
2022-12-08T06:41:12.332Z,0.26
2022-12-08T06:43:40.949Z,0.35
2022-12-08T06:46:11.413Z,0.42
2022-12-08T06:48:40.657Z,0.45
2022-12-08T06:51:09.441Z,0.50
2022-12-08T06:53:37.728Z,0.49
2022-12-08T06:56:06.414Z,0.49
2022-12-08T06:58:34.214Z,0.45
2022-12-08T07:01:06.342Z,0.39
2022-12-08T07:03:34.207Z,0.36
2022-12-08T07:06:04.535Z,2.92
2022-12-08T07:08:33.109Z,4.71
2022-12-08T07:11:01.115Z,4.71
2022-12-08T07:13:28.851Z,4.63
2022-12-08T07:15:56.685Z,4.82
2022-12-08T07:18:24.475Z,4.53
2022-12-08T07:20:52.304Z,4.85
2022-12-08T07:23:21.377Z,5.13
2022-12-08T07:25:49.182Z,4.92
2022-12-08T07:28:16.951Z,5.06
2022-12-08T07:30:44.739Z,4.57
2022-12-08T07:33:12.583Z,4.08
2022-12-08T07:35:43.813Z,4.50
2022-12-08T07:38:14.125Z,4.25
2022-12-08T07:40:43.386Z,4.05
2022-12-08T07:43:11.161Z,4.48
2022-12-08T07:45:39.034Z,5.11
2022-12-08T07:48:07.573Z,5.26
2022-12-08T07:50:35.666Z,5.05
2022-12-08T07:53:03.520Z,5.52
2022-12-08T07:55:31.305Z,5.42
2022-12-08T07:58:00.411Z,5.30
2022-12-08T08:00:28.210Z,5.24
2022-12-08T08:02:56.243Z,5.30
2022-12-08T08:05:24.600Z,4.19
2022-12-08T08:07:52.567Z,4.00
2022-12-08T08:10:20.384Z,3.98
2022-12-08T08:12:48.667Z,3.78
2022-12-08T08:15:19.344Z,4.43
2022-12-08T08:17:50.719Z,5.04
2022-12-08T08:20:19.601Z,4.78
2022-12-08T08:22:48.058Z,4.98
2022-12-08T08:25:16.297Z,4.36
2022-12-08T08:27:44.612Z,4.91
2022-12-08T08:30:20.025Z,5.05
2022-12-08T08:32:50.519Z,5.33
2022-12-08T08:35:18.698Z,4.56
2022-12-08T08:37:49.268Z,3.80
2022-12-08T08:40:17.696Z,3.15
2022-12-08T08:42:45.447Z,2.92
2022-12-08T08:45:13.360Z,2.89
2022-12-08T08:47:41.159Z,2.73
2022-12-08T08:50:10.615Z,2.70
2022-12-08T08:52:38.442Z,2.52
2022-12-08T08:55:07.109Z,2.40
2022-12-08T08:57:34.957Z,2.32
2022-12-08T09:00:03.818Z,2.40
2022-12-08T09:02:38.552Z,2.47
2022-12-08T09:05:07.915Z,2.65
2022-12-08T09:07:37.288Z,2.66
2022-12-08T09:10:06.162Z,2.68
2022-12-08T09:12:34.163Z,2.61
2022-12-08T09:15:01.918Z,2.63
2022-12-08T09:17:29.680Z,2.57
2022-12-08T09:19:57.460Z,2.70
2022-12-08T09:22:25.244Z,2.79
2022-12-08T09:24:54.497Z,2.88
2022-12-08T09:27:22.361Z,2.96
2022-12-08T09:29:50.241Z,3.03
2022-12-08T09:32:18.397Z,3.24
2022-12-08T09:34:52.091Z,3.42
2022-12-08T09:37:20.175Z,3.35
2022-12-08T09:39:47.959Z,3.17
2022-12-08T09:42:27.047Z,3.18
2022-12-08T09:45:03.762Z,3.20
2022-12-08T09:47:36.641Z,3.27
2022-12-08T09:50:11.839Z,3.13
2022-12-08T09:52:44.742Z,3.29
2022-12-08T09:55:23.581Z,3.41
2022-12-08T09:57:59.628Z,3.42
2022-12-08T10:00:27.779Z,3.37
2022-12-08T10:02:56.843Z,3.61
2022-12-08T10:05:26.952Z,3.60
2022-12-08T10:08:05.288Z,3.69
2022-12-08T10:10:39.916Z,3.55
2022-12-08T10:13:17.433Z,3.58
2022-12-08T10:15:49.113Z,3.82
2022-12-08T10:18:19.065Z,3.65
2022-12-08T10:20:48.564Z,3.76
2022-12-08T10:23:26.282Z,3.89
2022-12-08T10:26:02.472Z,3.83
2022-12-08T10:28:32.672Z,3.90
2022-12-08T10:31:00.556Z,3.95
2022-12-08T10:33:29.538Z,4.22
2022-12-08T10:36:00.578Z,4.31
2022-12-08T10:38:31.424Z,4.38
2022-12-08T10:41:04.536Z,4.18
2022-12-08T10:43:35.573Z,4.34
2022-12-08T10:46:12.469Z,4.41
2022-12-08T10:48:49.514Z,4.44
2022-12-08T10:51:25.435Z,4.41
2022-12-08T10:53:53.560Z,4.53
2022-12-08T10:56:26.841Z,4.66
2022-12-08T10:59:13.653Z,4.71
2022-12-08T11:01:43.345Z,4.15
2022-12-08T11:04:16.630Z,4.38
2022-12-08T11:06:45.373Z,4.55
2022-12-08T11:09:38.358Z,4.57
2022-12-08T11:12:14.337Z,4.46
2022-12-08T11:14:59.004Z,4.49
2022-12-08T11:17:29.464Z,4.28
2022-12-08T11:20:00.023Z,4.36
2022-12-08T11:22:33.056Z,4.32
2022-12-08T11:25:10.311Z,4.42
2022-12-08T11:27:41.051Z,4.57
2022-12-08T11:30:17.892Z,4.66
2022-12-08T11:32:47.879Z,4.61
2022-12-08T11:35:28.405Z,4.61
2022-12-08T11:38:13.525Z,4.43
2022-12-08T11:40:47.968Z,4.30
2022-12-08T11:43:20.079Z,4.13
2022-12-08T11:45:54.148Z,4.28
2022-12-08T11:48:28.980Z,4.32
2022-12-08T11:51:01.926Z,4.16
2022-12-08T11:53:35.960Z,4.17
2022-12-08T11:56:09.573Z,4.29
2022-12-08T11:58:42.300Z,4.18
2022-12-08T12:01:20.581Z,4.18
2022-12-08T12:03:56.183Z,4.19
2022-12-08T12:06:55.795Z,4.17
2022-12-08T12:09:36.725Z,4.06
2022-12-08T12:12:16.856Z,4.04
2022-12-08T12:15:08.736Z,4.03
2022-12-08T12:17:44.602Z,4.09
2022-12-08T12:20:18.489Z,4.18
2022-12-08T12:22:51.038Z,4.15
2022-12-08T12:25:22.661Z,3.98
2022-12-08T12:27:57.303Z,4.11
2022-12-08T12:30:27.561Z,4.19
2022-12-08T12:33:00.258Z,4.21
2022-12-08T12:35:34.566Z,4.23
2022-12-08T12:38:27.381Z,4.11
2022-12-08T12:41:02.194Z,3.99
2022-12-08T12:43:33.817Z,4.13
2022-12-08T12:46:39.380Z,4.23
2022-12-08T12:49:45.970Z,4.21
2022-12-08T12:52:50.587Z,4.20
2022-12-08T12:55:52.141Z,4.02
2022-12-08T12:58:37.667Z,4.02
2022-12-08T13:01:49.837Z,4.06
2022-12-08T13:04:18.574Z,3.96
2022-12-08T13:06:49.841Z,3.89
2022-12-08T13:09:23.276Z,4.15
2022-12-08T13:11:54.447Z,4.27
2022-12-08T13:14:46.708Z,4.28
2022-12-08T13:17:25.374Z,4.23
2022-12-08T13:19:57.232Z,4.08
2022-12-08T13:22:58.462Z,4.16
2022-12-08T13:26:10.764Z,4.21
2022-12-08T13:29:21.126Z,4.43
2022-12-08T13:31:53.672Z,4.71
2022-12-08T13:34:29.612Z,4.70
2022-12-08T13:37:27.385Z,4.89
2022-12-08T13:40:00.261Z,5.04
2022-12-08T13:42:36.928Z,5.06
2022-12-08T13:45:40.078Z,5.07
2022-12-08T13:57:10.122Z,4.84
2022-12-08T13:59:45.651Z,4.70
2022-12-08T14:02:18.618Z,4.41
2022-12-08T14:05:16.860Z,4.29
2022-12-08T14:07:37.829Z,4.35
2022-12-08T14:10:10.059Z,4.40
2022-12-08T14:12:38.754Z,4.65
2022-12-08T14:15:14.752Z,4.66
2022-12-08T14:17:51.574Z,4.61
2022-12-08T14:20:25.967Z,4.35
2022-12-08T14:22:54.701Z,4.21
2022-12-08T14:25:23.759Z,4.04
2022-12-08T14:27:57.671Z,3.89
2022-12-08T14:30:30.574Z,3.87
2022-12-08T14:32:59.689Z,3.76
2022-12-08T14:35:30.806Z,3.78
2022-12-08T14:38:00.433Z,3.76
2022-12-08T14:40:33.626Z,3.62
2022-12-08T14:43:15.932Z,3.56
2022-12-08T14:45:50.595Z,3.53
2022-12-08T14:48:23.393Z,3.55
2022-12-08T14:51:02.965Z,3.56
2022-12-08T14:53:41.367Z,3.57
2022-12-08T14:56:16.535Z,3.65
2022-12-08T14:58:44.783Z,3.68
2022-12-08T15:01:14.984Z,3.63
2022-12-08T15:03:48.885Z,3.65
2022-12-08T15:06:22.499Z,3.56
2022-12-08T15:08:58.598Z,3.42
2022-12-08T15:11:34.557Z,3.26
2022-12-08T15:14:02.784Z,3.15
2022-12-08T15:16:38.661Z,3.01
2022-12-08T15:19:17.341Z,2.89
2022-12-08T15:21:48.199Z,2.70
2022-12-08T15:24:16.706Z,2.59
2022-12-08T15:26:46.983Z,2.48
2022-12-08T15:29:21.132Z,2.35
2022-12-08T15:31:49.226Z,2.26
2022-12-08T15:34:17.085Z,2.11
2022-12-08T15:36:46.523Z,2.16
2022-12-08T15:39:26.250Z,2.05
2022-12-08T15:41:54.059Z,2.03
2022-12-08T15:44:21.882Z,2.02
2022-12-08T15:46:50.006Z,2.01
2022-12-08T15:49:19.493Z,2.05
2022-12-08T15:51:49.058Z,2.05
2022-12-08T15:54:17.222Z,2.04
2022-12-08T15:57:17.280Z,2.05
2022-12-08T15:59:35.402Z,2.06
2022-12-08T16:02:03.230Z,2.10
2022-12-08T16:07:25.170Z,2.12
2022-12-08T16:09:54.234Z,2.12
2022-12-08T16:13:40.463Z,2.14
2022-12-08T16:18:26.752Z,2.13
2022-12-08T16:21:22.880Z,2.20
2022-12-08T16:23:45.029Z,2.23
2022-12-08T16:26:28.669Z,2.23
2022-12-08T16:29:03.519Z,2.16
2022-12-08T16:31:32.083Z,2.13
2022-12-08T16:34:01.690Z,2.19
2022-12-08T16:36:29.529Z,2.21
2022-12-08T16:38:58.697Z,2.24
2022-12-08T16:41:44.145Z,2.33
2022-12-08T16:44:12.006Z,2.32
2022-12-08T16:46:39.878Z,2.26
2022-12-08T16:49:09.912Z,2.09
2022-12-08T16:51:37.734Z,2.08
2022-12-08T16:54:07.022Z,2.10
2022-12-08T16:56:35.160Z,2.03
2022-12-08T16:59:03.171Z,1.87
2022-12-08T17:01:31.086Z,1.76
2022-12-08T17:04:30.043Z,1.65
2022-12-08T17:06:46.749Z,1.57
2022-12-08T17:09:15.889Z,1.52
2022-12-08T17:11:44.081Z,1.36
2022-12-08T17:14:12.642Z,1.21
2022-12-08T17:16:41.064Z,1.15
2022-12-08T17:19:08.899Z,1.05
2022-12-08T17:21:36.946Z,0.88
2022-12-08T17:24:05.210Z,0.86
2022-12-08T17:26:35.359Z,0.81
2022-12-08T17:29:04.160Z,0.79
2022-12-08T17:31:33.408Z,0.76
2022-12-08T17:34:02.024Z,0.70
2022-12-08T17:36:30.402Z,0.65
2022-12-08T17:39:00.734Z,0.47
2022-12-08T17:41:29.010Z,0.42
2022-12-08T17:43:58.491Z,0.40
2022-12-08T17:46:26.510Z,0.37
2022-12-08T17:48:55.045Z,0.40
2022-12-08T17:51:22.833Z,0.40
2022-12-08T17:53:51.236Z,0.45
2022-12-08T17:56:20.665Z,0.40
2022-12-08T17:58:54.337Z,0.35
2022-12-08T18:01:25.068Z,0.27
2022-12-08T18:03:52.928Z,0.28
2022-12-08T18:06:21.247Z,0.23
2022-12-08T18:08:50.229Z,0.19
2022-12-08T18:11:20.088Z,0.16
2022-12-08T18:13:49.199Z,0.17
2022-12-08T18:16:18.748Z,0.11
2022-12-08T18:18:48.192Z,0.00
2022-12-08T18:21:23.060Z,-0.11
2022-12-08T18:23:52.192Z,-0.16
2022-12-08T18:26:21.315Z,-0.20
2022-12-08T18:28:49.268Z,-0.29
2022-12-08T18:31:19.362Z,-0.42
2022-12-08T18:33:49.432Z,-0.44
2022-12-08T18:36:19.353Z,-0.44
2022-12-08T18:38:48.118Z,-0.41
2022-12-08T18:41:18.094Z,-0.33
2022-12-08T18:43:46.322Z,-0.34
2022-12-08T18:46:15.863Z,-0.42
2022-12-08T18:48:45.929Z,-0.56
2022-12-08T18:51:17.509Z,-0.59
2022-12-08T18:53:46.153Z,-0.68
2022-12-08T18:56:23.130Z,-0.69
2022-12-08T18:58:50.997Z,-0.65
2022-12-08T19:01:18.953Z,-0.58
2022-12-08T19:04:12.061Z,-0.54
2022-12-08T19:06:39.190Z,-0.55
2022-12-08T19:09:07.541Z,-0.74
2022-12-08T19:11:35.384Z,-0.82
2022-12-08T19:14:03.392Z,-1.02
2022-12-08T19:16:31.397Z,-1.18
2022-12-08T19:18:59.275Z,-1.03
2022-12-08T19:21:27.180Z,-0.92
2022-12-08T19:23:58.385Z,-0.94
2022-12-08T19:26:26.892Z,-0.86
2022-12-08T19:28:55.043Z,-0.78
2022-12-08T19:31:23.272Z,-0.73
2022-12-08T19:33:51.271Z,-0.75
2022-12-08T19:36:21.019Z,-0.74
2022-12-08T19:39:06.961Z,-0.85
2022-12-08T19:41:55.023Z,-1.08
2022-12-08T19:44:42.967Z,-1.26
2022-12-08T19:47:10.976Z,-1.38
2022-12-08T19:49:38.997Z,-1.33
2022-12-08T19:52:07.447Z,-1.24
2022-12-08T19:54:36.427Z,-1.23
2022-12-08T19:57:05.620Z,-1.07
2022-12-08T19:59:33.416Z,-1.06
2022-12-08T20:02:01.274Z,-1.06
2022-12-08T20:04:29.231Z,-1.18
2022-12-08T20:06:58.086Z,-1.38
2022-12-08T20:09:26.199Z,-1.62
2022-12-08T20:11:55.000Z,-1.59
2022-12-08T20:14:25.288Z,-1.47
2022-12-08T20:16:53.168Z,-1.27
2022-12-08T20:19:21.104Z,-1.25
2022-12-08T20:21:49.150Z,-1.14
2022-12-08T20:24:17.728Z,-1.15
2022-12-08T20:26:45.610Z,-1.14
2022-12-08T20:29:16.825Z,-1.08
2022-12-08T20:31:46.389Z,-1.17
2022-12-08T20:34:15.226Z,-1.13
2022-12-08T20:36:43.075Z,-1.24
2022-12-08T20:39:13.658Z,-1.43
2022-12-08T20:41:41.561Z,-1.49
2022-12-08T20:44:09.660Z,-1.46
2022-12-08T20:46:37.512Z,-1.49
2022-12-08T20:49:06.870Z,-1.43
2022-12-08T20:51:35.236Z,-1.48
2022-12-08T20:54:04.449Z,-1.47
2022-12-08T20:56:32.869Z,-1.58
2022-12-08T20:59:00.789Z,-1.57
2022-12-08T21:01:28.998Z,-1.67
2022-12-08T21:03:57.232Z,-1.69
2022-12-08T21:06:28.135Z,-1.68
2022-12-08T21:08:56.184Z,-1.71
2022-12-08T21:11:24.224Z,-1.77
2022-12-08T21:13:52.447Z,-1.83
2022-12-08T21:16:20.467Z,-1.79
2022-12-08T21:18:48.637Z,-1.74
2022-12-08T21:21:17.863Z,-1.67
2022-12-08T21:23:47.326Z,-1.66
2022-12-08T21:26:17.514Z,-1.65
2022-12-08T21:28:46.651Z,-1.59
2022-12-08T21:31:17.058Z,-1.58
2022-12-08T21:33:45.130Z,-1.60
2022-12-08T21:36:15.901Z,-1.65
2022-12-08T21:38:44.756Z,-1.64
2022-12-08T21:41:15.914Z,-1.66
2022-12-08T21:43:44.129Z,-1.62
2022-12-08T21:46:16.910Z,-1.66
2022-12-08T21:48:45.104Z,-1.70
2022-12-08T21:51:13.314Z,-1.75
2022-12-08T21:53:41.356Z,-1.85
2022-12-08T21:56:09.937Z,-1.92
2022-12-08T21:58:39.811Z,-1.82
2022-12-08T22:01:09.440Z,-1.75
2022-12-08T22:03:39.191Z,-1.65
2022-12-08T22:06:08.211Z,-1.65
2022-12-08T22:08:36.439Z,-1.59
2022-12-08T22:11:05.307Z,-1.46
2022-12-08T22:13:36.622Z,-1.47
2022-12-08T22:16:08.123Z,-1.45
2022-12-08T22:18:36.690Z,-1.43
2022-12-08T22:21:09.436Z,-1.46
2022-12-08T22:23:37.793Z,-1.45
2022-12-08T22:26:06.424Z,-1.39
2022-12-08T22:28:36.249Z,-1.40
2022-12-08T22:31:10.992Z,-1.35
2022-12-08T22:33:40.911Z,-1.33
2022-12-08T22:36:14.541Z,-1.46
2022-12-08T22:38:42.450Z,-1.37
2022-12-08T22:41:10.228Z,-1.35
2022-12-08T22:43:38.387Z,-1.40
2022-12-08T22:46:12.100Z,-1.30
2022-12-08T22:48:40.629Z,-1.41
2022-12-08T22:51:08.792Z,-1.71
2022-12-08T22:53:36.671Z,-1.74
2022-12-08T22:56:05.408Z,-1.64
2022-12-08T22:58:33.437Z,-1.57
2022-12-08T23:01:01.287Z,-1.39
2022-12-08T23:03:30.760Z,-1.36
2022-12-08T23:06:00.949Z,-1.39
2022-12-08T23:08:29.316Z,-1.35
2022-12-08T23:10:57.487Z,-1.38
2022-12-08T23:13:25.503Z,-1.35
2022-12-08T23:15:53.254Z,-1.27
2022-12-08T23:18:21.186Z,-1.26
2022-12-08T23:20:50.389Z,-1.21
2022-12-08T23:23:18.176Z,-1.20
2022-12-08T23:25:46.054Z,-1.17
2022-12-08T23:28:13.959Z,-1.42
2022-12-08T23:30:42.113Z,-1.57
2022-12-08T23:33:10.056Z,-1.58
2022-12-08T23:35:37.976Z,-1.39
2022-12-08T23:38:07.168Z,-1.33
2022-12-08T23:40:35.404Z,-1.27
2022-12-08T23:43:03.435Z,-1.24
2022-12-08T23:45:31.320Z,-1.20
2022-12-08T23:47:59.222Z,-1.20
2022-12-08T23:50:27.142Z,-1.11
2022-12-08T23:52:54.903Z,-1.06
2022-12-08T23:55:24.151Z,-1.13
2022-12-08T23:57:52.024Z,-0.97
